TimeEST,TemperatureF,Dew PointF,Humidity,Sea Level PressureIn,VisibilityMPH,Wind Direction,Wind SpeedMPH,Gust SpeedMPH,PrecipitationIn,Events,Conditions,WindDirDegrees,DateUTC
12:15 AM,28.9,23.0,78,29.89,10.0,Calm,Calm,-,N/A,,Clear,0,2013-03-01 05:15:00
12:35 AM,27.9,23.7,84,29.89,10.0,NNW,3.5,-,N/A,,Clear,340,2013-03-01 05:35:00
12:55 AM,29.1,23.7,80,29.89,10.0,NNW,3.5,-,N/A,,Clear,340,2013-03-01 05:55:00
1:15 AM,28.0,23.9,84,29.89,10.0,Calm,Calm,-,N/A,,Clear,0,2013-03-01 06:15:00
1:35 AM,28.4,23.9,83,29.89,10.0,NNW,4.6,-,N/A,,Clear,330,2013-03-01 06:35:00
2:15 AM,27.0,23.7,88,29.89,10.0,Calm,Calm,-,N/A,,Clear,0,2013-03-01 07:15:00
2:35 AM,27.0,23.5,87,29.89,10.0,Calm,Calm,-,N/A,,Clear,0,2013-03-01 07:35:00
2:55 AM,26.4,23.5,89,29.89,10.0,Calm,Calm,-,N/A,,Clear,0,2013-03-01 07:55:00
3:15 AM,27.7,23.4,84,29.88,10.0,Calm,Calm,-,N/A,,Clear,0,2013-03-01 08:15:00
3:35 AM,27.3,23.7,86,29.87,10.0,Calm,Calm,-,N/A,,Clear,0,2013-03-01 08:35:00
3:55 AM,27.0,23.7,88,29.88,10.0,Calm,Calm,-,N/A,,Clear,0,2013-03-01 08:55:00
4:55 AM,25.3,23.0,91,29.90,10.0,Calm,Calm,-,N/A,,Clear,0,2013-03-01 09:55:00
5:15 AM,25.0,23.0,92,29.91,10.0,NW,3.5,-,N/A,,Clear,320,2013-03-01 10:15:00
5:35 AM,24.8,23.2,94,29.91,10.0,NNW,3.5,-,N/A,,Clear,330,2013-03-01 10:35:00
5:55 AM,26.4,23.5,89,29.91,10.0,West,3.5,-,N/A,,Clear,280,2013-03-01 10:55:00
6:15 AM,25.7,23.0,89,29.92,10.0,Calm,Calm,-,N/A,,Clear,0,2013-03-01 11:15:00
6:35 AM,25.3,23.0,91,29.92,10.0,Calm,Calm,-,N/A,,Clear,0,2013-03-01 11:35:00
7:15 AM,24.8,22.8,92,29.92,10.0,Calm,Calm,-,N/A,,Mostly Cloudy,0,2013-03-01 12:15:00
7:35 AM,27.1,24.4,90,29.92,10.0,Calm,Calm,-,N/A,,Overcast,0,2013-03-01 12:35:00
7:55 AM,27.1,24.8,91,29.92,10.0,Calm,Calm,-,N/A,,Overcast,0,2013-03-01 12:55:00
8:15 AM,28.2,25.7,90,29.93,10.0,Calm,Calm,-,N/A,,Overcast,0,2013-03-01 13:15:00
8:35 AM,29.8,26.8,88,29.93,10.0,Calm,Calm,-,N/A,,Overcast,0,2013-03-01 13:35:00
8:55 AM,32.0,28.8,88,29.93,10.0,Calm,Calm,-,N/A,,Overcast,0,2013-03-01 13:55:00
9:15 AM,33.4,29.1,84,29.93,10.0,Calm,Calm,-,N/A,,Overcast,0,2013-03-01 14:15:00
9:35 AM,35.4,29.3,78,29.93,10.0,Calm,Calm,-,N/A,,Overcast,0,2013-03-01 14:35:00
9:55 AM,37.4,30.4,76,29.93,10.0,Calm,Calm,-,N/A,,Overcast,0,2013-03-01 14:55:00
10:15 AM,38.1,28.0,67,29.93,10.0,Calm,Calm,-,N/A,,Overcast,0,2013-03-01 15:15:00
10:35 AM,39.9,26.8,59,29.93,10.0,Calm,Calm,-,N/A,,Overcast,0,2013-03-01 15:35:00
10:55 AM,40.3,27.1,59,29.93,10.0,Calm,Calm,-,N/A,,Overcast,0,2013-03-01 15:55:00
11:15 AM,40.6,25.9,56,29.93,10.0,Calm,Calm,-,N/A,,Overcast,0,2013-03-01 16:15:00
11:35 AM,41.0,25.7,55,29.93,10.0,South,4.6,-,N/A,,Overcast,190,2013-03-01 16:35:00
11:55 AM,41.5,26.8,56,29.93,10.0,Calm,Calm,-,N/A,,Overcast,0,2013-03-01 16:55:00
12:15 PM,41.9,26.8,55,29.92,10.0,Calm,Calm,-,N/A,,Overcast,0,2013-03-01 17:15:00
12:35 PM,43.0,27.7,55,29.92,10.0,Calm,Calm,-,N/A,,Overcast,0,2013-03-01 17:35:00
1:15 PM,42.1,27.1,55,29.90,10.0,SSE,3.5,-,N/A,,Overcast,150,2013-03-01 18:15:00
1:35 PM,42.8,27.5,55,29.89,10.0,Calm,Calm,-,N/A,,Overcast,0,2013-03-01 18:35:00
1:55 PM,44.4,26.2,49,29.88,10.0,WNW,4.6,-,N/A,,Overcast,290,2013-03-01 18:55:00
2:15 PM,45.3,26.4,48,29.87,10.0,NW,3.5,-,N/A,,Overcast,320,2013-03-01 19:15:00
2:35 PM,46.0,27.1,48,29.87,10.0,WNW,4.6,-,N/A,,Overcast,300,2013-03-01 19:35:00
2:55 PM,46.0,27.1,48,29.87,10.0,Calm,Calm,-,N/A,,Overcast,0,2013-03-01 19:55:00
3:15 PM,46.2,27.1,47,29.86,10.0,North,3.5,-,N/A,,Overcast,350,2013-03-01 20:15:00
3:35 PM,46.2,27.1,47,29.86,10.0,North,4.6,-,N/A,,Overcast,10,2013-03-01 20:35:00
4:15 PM,48.2,27.7,45,29.86,10.0,NNW,3.5,-,N/A,,Overcast,340,2013-03-01 21:15:00
4:35 PM,47.1,26.4,45,29.86,10.0,WNW,3.5,-,N/A,,Overcast,300,2013-03-01 21:35:00
4:55 PM,46.2,26.8,47,29.86,10.0,West,3.5,-,N/A,,Overcast,280,2013-03-01 21:55:00
5:15 PM,44.8,26.4,49,29.87,10.0,NW,4.6,-,N/A,,Mostly Cloudy,320,2013-03-01 22:15:00
5:35 PM,43.7,26.6,51,29.88,10.0,WNW,4.6,-,N/A,,Scattered Clouds,290,2013-03-01 22:35:00
5:55 PM,43.0,26.6,52,29.89,10.0,WNW,4.6,-,N/A,,Overcast,290,2013-03-01 22:55:00
6:15 PM,42.4,26.8,54,29.89,10.0,Calm,Calm,-,N/A,,Overcast,0,2013-03-01 23:15:00
6:35 PM,42.3,26.6,54,29.89,10.0,Calm,Calm,-,N/A,,Overcast,0,2013-03-01 23:35:00
6:55 PM,41.9,27.9,58,29.89,10.0,NW,3.5,-,N/A,,Overcast,310,2013-03-01 23:55:00
7:15 PM,41.2,28.2,60,29.91,10.0,NW,3.5,-,N/A,,Overcast,310,2013-03-02 00:15:00
7:35 PM,41.2,27.5,58,29.91,10.0,Calm,Calm,-,N/A,,Overcast,0,2013-03-02 00:35:00
7:55 PM,41.0,27.0,57,29.91,10.0,Calm,Calm,-,N/A,,Overcast,0,2013-03-02 00:55:00
8:15 PM,40.5,27.5,60,29.91,10.0,NNW,3.5,-,N/A,,Overcast,330,2013-03-02 01:15:00
8:35 PM,40.3,26.6,58,29.92,10.0,Calm,Calm,-,N/A,,Overcast,0,2013-03-02 01:35:00
8:55 PM,40.1,27.0,59,29.91,10.0,Calm,Calm,-,N/A,,Overcast,0,2013-03-02 01:55:00
9:15 PM,39.9,27.3,61,29.91,10.0,North,3.5,-,N/A,,Overcast,350,2013-03-02 02:15:00
9:35 PM,39.6,27.3,62,29.92,10.0,Calm,Calm,-,N/A,,Overcast,0,2013-03-02 02:35:00
9:55 PM,39.6,26.6,60,29.92,10.0,Calm,Calm,-,N/A,,Overcast,0,2013-03-02 02:55:00
10:15 PM,39.2,26.8,61,29.92,10.0,Calm,Calm,-,N/A,,Overcast,0,2013-03-02 03:15:00
10:35 PM,39.2,26.6,61,29.91,10.0,Calm,Calm,-,N/A,,Overcast,0,2013-03-02 03:35:00
10:55 PM,39.2,27.1,62,29.91,10.0,Calm,Calm,-,N/A,,Overcast,0,2013-03-02 03:55:00
11:15 PM,38.3,28.4,68,29.91,10.0,Calm,Calm,-,N/A,,Overcast,0,2013-03-02 04:15:00
11:35 PM,38.5,27.3,64,29.90,10.0,North,3.5,-,N/A,,Overcast,10,2013-03-02 04:35:00
11:55 PM,38.7,27.1,63,29.90,10.0,Calm,Calm,-,N/A,,Overcast,0,2013-03-02 04:55:00